Flight Track Log - Related Links

Times and Time Zones

All times are in EDT time to prevent confusion due to time zone crossing. See the N93974 flight status page for this flight to view local times or setup timezone preferences in your user account.

Time Position Orientation Groundspeed Altitude Reporting Facility
EDT Latitude Longitude Course Direction KTS MPH feet Rate Location/Type
Sun 02:43:18 PM 40.7503 -103.6003 72° East 168 193 9,400  Level Denver Center
Sun 02:44:20 PM 40.7631 -103.5372 75° East 173 199 9,400  Level Denver Center
Sun 02:45:22 PM 40.7811 -103.4650 72° East 174 200 9,400 145 Level Denver Center
Sun 02:46:24 PM 40.7950 -103.4081 72° East 166 191 9,700 242 Climbing Denver Center
Sun 02:47:00 PM 40.5426 -104.6432 72° East  Level Estimated
Sun 02:47:26 PM 40.8064 -103.3550 74° East 156 180 9,900  Level Denver Center
Sun 02:48:00 PM 40.5576 -104.5818 72° East  Level Estimated
Sun 02:48:28 PM 40.8164 -103.2994 77° East 155 178 10,200  Level Denver Center
Sun 02:49:30 PM 40.8347 -103.2486 65° Northeast 154 177 10,400 145 Climbing Denver Center
Sun 02:50:32 PM 40.8544 -103.2000 62° Northeast 150 173 10,500 97 Climbing Denver Center
Sun 02:51:34 PM 40.8775 -103.1400 63° Northeast 152 175 10,600 145 Climbing Denver Center
Sun 02:52:36 PM 40.8808 -103.0806 86° East 159 183 10,800 192 Climbing Denver Center
Sun 02:53:39 PM 40.8892 -103.0250 79° East 156 180 11,000 48 Climbing Denver Center
Sun 02:54:41 PM 40.9031 -102.9631 73° East 164 189 10,900 -48 Descending Denver Center
Sun 02:55:43 PM 40.9189 -102.9069 70° East 171 197 10,900  Level Denver Center
Sun 02:56:45 PM 40.9328 -102.8364 75° East 178 205 10,900 48 Level Denver Center
Sun 02:57:47 PM 40.9453 -102.7797 74° East 171 197 11,000  Climbing Denver Center
Sun 02:58:49 PM 40.9611 -102.7128 73° East 172 198 10,900 -48 Descending Denver Center
Sun 02:59:51 PM 40.9706 -102.6542 78° East 171 197 10,900  Level Denver Center
Sun 03:00:53 PM 40.9892 -102.5900 69° East 169 194 10,900  Level Denver Center
Sun 03:01:55 PM 41.0039 -102.5342 71° East 168 193 10,900  Level Denver Center
Sun 03:02:57 PM 41.0153 -102.4694 77° East 164 189 10,900  Level Denver Center
Sun 03:03:59 PM 41.0283 -102.4150 72° East 163 188 10,900  Level Denver Center
Sun 03:05:01 PM 41.0447 -102.3475 72° East 168 193 10,900  Level Denver Center
Sun 03:06:03 PM 41.0583 -102.2911 72° East 169 194 10,900  Level Denver Center
Sun 03:07:05 PM 41.0708 -102.2333 74° East 169 194 10,900 -48 Level Denver Center
Sun 03:08:07 PM 41.0856 -102.1667 74° East 169 194 10,800  Descending Denver Center
Sun 03:09:09 PM 41.0983 -102.1089 74° East 170 196 10,900  Climbing Denver Center
Sun 03:10:11 PM 41.1136 -102.0408 73° East 171 197 10,800 -48 Descending Denver Center
Sun 03:11:13 PM 41.1264 -101.9833 74° East 172 198 10,800  Level Denver Center
Sun 03:12:15 PM 41.1403 -101.9136 75° East 173 199 10,800 48 Level Denver Center
Sun 03:13:17 PM 41.1550 -101.8575 71° East 170 196 10,900  Climbing Denver Center
Sun 03:14:19 PM 41.1692 -101.7894 75° East 171 197 10,800 -48 Descending Denver Center
Sun 03:15:22 PM 41.1794 -101.7308 77° East 171 197 10,800  Level Denver Center
Sun 03:16:24 PM 41.1933 -101.6633 75° East 170 196 10,800  Level Denver Center
Sun 03:17:26 PM 41.2075 -101.6061 72° East 170 196 10,800  Level Denver Center
Sun 03:18:28 PM 41.2217 -101.5369 75° East 172 198 10,800  Level Denver Center
Sun 03:19:30 PM 41.2353 -101.4781 73° East 173 199 10,800  Level Denver Center
Sun 03:20:32 PM 41.2475 -101.4194 74° East 173 199 10,800  Level Denver Center
Sun 03:21:34 PM 41.2617 -101.3522 74° East 171 197 10,800  Level Denver Center
Sun 03:22:36 PM 41.2739 -101.2958 74° East 169 194 10,800  Level Denver Center
Sun 03:23:38 PM 41.2875 -101.2286 75° East 168 193 10,800  Level Denver Center
Sun 03:24:40 PM 41.3000 -101.1711 74° East 168 193 10,800  Level Denver Center
Sun 03:25:42 PM 41.3139 -101.1056 74° East 166 191 10,800  Level Denver Center
Sun 03:26:44 PM 41.3256 -101.0489 75° East 166 191 10,800  Level Denver Center
Sun 03:27:46 PM 41.3408 -100.9819 73° East 167 192 10,800  Level Denver Center
Sun 03:28:48 PM 41.3531 -100.9247 74° East 168 193 10,800  Level Denver Center
Sun 03:29:50 PM 41.3672 -100.8567 74° East 170 196 10,800  Level Denver Center
Sun 03:30:52 PM 41.3817 -100.8006 71° East 169 194 10,800  Level Denver Center
Sun 03:31:54 PM 41.3922 -100.7311 79° East 170 196 10,800  Level Denver Center
Sun 03:32:56 PM 41.4028 -100.6731 76° East 169 194 10,800  Level Denver Center
Sun 03:33:58 PM 41.4147 -100.6139 75° East 171 197 10,800  Level Denver Center
Sun 03:35:01 PM 41.4281 -100.5450 76° East 172 198 10,800  Level Denver Center
Sun 03:36:03 PM 41.4422 -100.4867 72° East 172 198 10,800  Level Denver Center
Sun 03:37:05 PM 41.4558 -100.4189 75° East 171 197 10,800  Level Denver Center
Sun 03:38:07 PM 41.4678 -100.3597 75° East 171 197 10,800  Level Denver Center
Sun 03:39:09 PM 41.4836 -100.2903 73° East 174 200 10,800  Level Denver Center
Sun 03:40:11 PM 41.4958 -100.2328 74° East 171 197 10,800  Level Denver Center
Sun 03:41:13 PM 41.5081 -100.1619 77° East 173 199 10,800  Level Denver Center
Sun 03:42:15 PM 41.5211 -100.1036 73° East 172 198 10,800  Level Denver Center
Sun 03:43:17 PM 41.5353 -100.0356 74° East 170 196 10,800  Level Denver Center
Sun 03:44:19 PM 41.5472 -99.9753 75° East 174 200 10,800  Level Denver Center
Sun 03:45:21 PM 41.5600 -99.9050 76° East 174 200 10,800  Level Denver Center
Sun 03:46:23 PM 41.5717 -99.8447 75° East 174 200 10,800  Level Denver Center
Sun 03:47:25 PM 41.5850 -99.7858 73° East 175 201 10,800  Level Denver Center
Sun 03:48:27 PM 41.5975 -99.7197 76° East 174 200 10,800  Level Denver Center
Sun 03:49:29 PM 41.6111 -99.6575 74° East 174 200 10,800  Level Denver Center
Sun 03:50:31 PM 41.6214 -99.5947 78° East 174 200 10,800  Level Denver Center
Sun 03:51:10 PM 41.6314 -99.5458 75° East 173 199 10,800  Level Minneapolis Center
Sun 03:52:11 PM 41.6456 -99.4858 72° East 170 196 10,800  Level Minneapolis Center
Sun 03:53:13 PM 41.6556 -99.4239 78° East 170 196 10,800  Level Minneapolis Center
Sun 03:54:15 PM 41.6672 -99.3642 75° East 169 194 10,800  Level Minneapolis Center
Sun 03:55:17 PM 41.6781 -99.3033 77° East 168 193 10,800  Level Minneapolis Center
Sun 03:56:19 PM 41.6886 -99.2428 77° East 167 192 10,800 97 Level Minneapolis Center
Sun 03:57:21 PM 41.7014 -99.1844 74° East 166 191 11,000 97 Climbing Minneapolis Center
Sun 03:58:23 PM 41.7131 -99.1278 75° East 162 186 11,000  Level Minneapolis Center
Sun 03:59:25 PM 41.7256 -99.0561 77° East 163 188 11,000  Level Minneapolis Center
Sun 04:00:26 PM 41.7378 -98.9964 75° East 164 189 11,000  Level Minneapolis Center
Sun 04:01:28 PM 41.7503 -98.9353 75° East 167 192 11,000  Level Minneapolis Center
Sun 04:02:30 PM 41.7603 -98.8744 78° East 167 192 11,000  Level Minneapolis Center
Sun 04:03:32 PM 41.7719 -98.8142 75° East 167 192 11,000  Level Minneapolis Center
Sun 04:04:34 PM 41.7817 -98.7547 78° East 165 190 11,000  Level Minneapolis Center
Sun 04:05:36 PM 41.7958 -98.6947 72° East 166 191 11,000  Level Minneapolis Center
Sun 04:06:38 PM 41.8089 -98.6250 76° East 162 186 11,000  Level Minneapolis Center
Sun 04:07:40 PM 41.8194 -98.5647 77° East 164 189 11,000  Level Minneapolis Center
Sun 04:08:42 PM 41.8303 -98.5039 77° East 167 192 11,000  Level Minneapolis Center
Sun 04:09:44 PM 41.8417 -98.4431 76° East 168 193 11,000  Level Minneapolis Center
Sun 04:10:46 PM 41.8531 -98.3817 76° East 169 194 11,000  Level Minneapolis Center
Sun 04:11:48 PM 41.8644 -98.3197 76° East 170 196 11,000  Level Minneapolis Center
Sun 04:12:50 PM 41.8753 -98.2575 77° East 171 197 11,000  Level Minneapolis Center
Sun 04:13:52 PM 41.8889 -98.1847 76° East 168 193 11,000  Level Minneapolis Center
Sun 04:14:54 PM 41.8986 -98.1247 78° East 171 197 11,000  Level Minneapolis Center
Sun 04:15:56 PM 41.9122 -98.0644 73° East 170 196 11,000  Level Minneapolis Center
Sun 04:16:58 PM 41.9242 -98.0047 75° East 168 193 11,000  Level Minneapolis Center
Sun 04:18:00 PM 41.9336 -97.9419 79° East 170 196 11,000  Level Minneapolis Center
Sun 04:19:02 PM 41.9450 -97.8689 78° East 168 193 11,000  Level Minneapolis Center
Sun 04:20:04 PM 41.9583 -97.8092 73° East 167 192 11,000  Level Minneapolis Center
Sun 04:21:06 PM 41.9667 -97.7472 80° East 168 193 11,000  Level Minneapolis Center
Sun 04:22:08 PM 41.9764 -97.6861 78° East 167 192 11,000  Level Minneapolis Center
Sun 04:23:10 PM 41.9897 -97.6247 74° East 169 194 11,000  Level Minneapolis Center
Sun 04:24:13 PM 41.9989 -97.5639 79° East 168 193 11,000  Level Minneapolis Center
Sun 04:25:15 PM 42.0114 -97.4894 77° East 169 194 11,000  Level Minneapolis Center
Sun 04:26:17 PM 42.0228 -97.4286 76° East 169 194 11,000  Level Minneapolis Center
Sun 04:27:19 PM 42.0347 -97.3653 76° East 173 199 11,000  Level Minneapolis Center
Sun 04:28:21 PM 42.0433 -97.3036 79° East 170 196 11,000  Level Minneapolis Center
Sun 04:29:23 PM 42.0553 -97.2408 76° East 172 198 11,000  Level Minneapolis Center
Sun 04:30:25 PM 42.0664 -97.1786 76° East 171 197 11,000  Level Minneapolis Center
Sun 04:31:27 PM 42.0772 -97.1167 77° East 170 196 11,000  Level Minneapolis Center
Sun 04:32:29 PM 42.0897 -97.0406 77° East 171 197 11,000  Level Minneapolis Center
Sun 04:33:31 PM 42.1006 -96.9783 77° East 171 197 11,000  Level Minneapolis Center
Sun 04:34:33 PM 42.1106 -96.9167 78° East 169 194 11,000  Level Minneapolis Center
Sun 04:35:35 PM 42.1217 -96.8550 76° East 170 196 11,000  Level Minneapolis Center
Sun 04:36:37 PM 42.1328 -96.7914 77° East 172 198 11,000  Level Minneapolis Center
Sun 04:37:39 PM 42.1433 -96.7289 77° East 172 198 11,000  Level Minneapolis Center
Sun 04:38:41 PM 42.1556 -96.6533 78° East 172 198 11,000  Level Minneapolis Center
Sun 04:39:44 PM 42.1669 -96.5897 76° East 173 199 11,000  Level Minneapolis Center
Sun 04:40:46 PM 42.1775 -96.5264 77° East 173 199 11,000  Level Minneapolis Center
Sun 04:41:48 PM 42.1892 -96.4633 76° East 174 200 11,000  Level Minneapolis Center
Sun 04:42:50 PM 42.1997 -96.4003 77° East 172 198 11,000  Level Minneapolis Center
Sun 04:43:52 PM 42.2106 -96.3356 77° East 174 200 11,000  Level Minneapolis Center
Sun 04:44:54 PM 42.2206 -96.2722 78° East 174 200 11,000  Level Minneapolis Center
Sun 04:45:56 PM 42.2333 -96.1950 77° East 176 203 11,000  Level Minneapolis Center
Sun 04:46:58 PM 42.2428 -96.1300 79° East 176 203 11,000  Level Minneapolis Center
Sun 04:48:00 PM 42.2536 -96.0672 77° East 173 199 11,000  Level Minneapolis Center
Sun 04:49:02 PM 42.2647 -95.9953 78° East 175 201 11,000  Level Minneapolis Center
Sun 04:50:04 PM 42.2742 -95.9403 77° East 173 199 11,000  Level Minneapolis Center
Sun 04:51:06 PM 42.2842 -95.8781 78° East 172 198 11,000  Level Minneapolis Center
Sun 04:52:08 PM 42.2950 -95.8022 79° East 171 197 11,000  Level Minneapolis Center
Sun 04:53:10 PM 42.3053 -95.7381 78° East 173 199 11,000 -48 Level Minneapolis Center
Sun 04:54:12 PM 42.3156 -95.6719 78° East 176 203 10,900  Descending Minneapolis Center
Sun 04:55:14 PM 42.3264 -95.6094 77° East 175 201 11,000 48 Climbing Minneapolis Center
Sun 04:56:16 PM 42.3356 -95.5433 79° East 177 204 11,000  Level Minneapolis Center
Sun 04:57:19 PM 42.3469 -95.4792 76° East 175 201 11,000  Level Minneapolis Center
Sun 04:58:21 PM 42.3586 -95.4028 78° East 174 200 11,000  Level Minneapolis Center
Sun 04:59:23 PM 42.3700 -95.3383 77° East 175 201 11,000  Level Minneapolis Center
Sun 05:00:25 PM 42.3769 -95.2728 82° East 176 203 11,000  Level Minneapolis Center
Sun 05:01:27 PM 42.3881 -95.2069 77° East 178 205 11,000  Level Minneapolis Center
Sun 05:02:29 PM 42.4000 -95.1433 76° East 176 203 11,000  Level Minneapolis Center
Sun 05:03:31 PM 42.4122 -95.0803 75° East 175 201 11,000  Level Minneapolis Center
Sun 05:04:33 PM 42.4089 -95.0100 94° East 181 208 11,000 48 Level Minneapolis Center
Sun 05:05:35 PM 42.4347 -94.9408 63° Northeast 173 199 11,100 48 Climbing Minneapolis Center
Sun 05:06:37 PM 42.4381 -94.8717 86° East 177 204 11,100  Level Minneapolis Center
Sun 05:07:39 PM 42.4483 -94.8058 78° East 181 208 11,100  Level Minneapolis Center
Sun 05:08:41 PM 42.4608 -94.7417 75° East 176 203 11,100  Level Minneapolis Center
Sun 05:09:43 PM 42.4672 -94.6719 83° East 182 209 11,100 -48 Level Minneapolis Center
Sun 05:10:45 PM 42.4792 -94.6064 76° East 182 209 11,000 -48 Descending Minneapolis Center
Sun 05:11:47 PM 42.4914 -94.5308 78° East 176 203 11,000  Level Minneapolis Center
Sun 05:12:50 PM 42.5031 -94.4633 77° East 179 206 11,000  Level Minneapolis Center
Sun 05:13:52 PM 42.5108 -94.3919 82° East 183 211 11,000  Level Minneapolis Center
Sun 05:14:54 PM 42.5208 -94.3253 78° East 183 211 11,000  Level Minneapolis Center
Sun 05:15:56 PM 42.5317 -94.2597 77° East 181 208 11,000  Level Minneapolis Center
Sun 05:16:58 PM 42.5411 -94.1925 79° East 182 209 11,000  Level Minneapolis Center
Sun 05:18:00 PM 42.5517 -94.1256 78° East 183 211 11,000  Level Minneapolis Center
Sun 05:19:02 PM 42.5617 -94.0436 81° East 184 212 11,000  Level Minneapolis Center
Sun 05:20:04 PM 42.5731 -93.9753 77° East 184 212 11,000  Level Minneapolis Center
Sun 05:21:05 PM 42.5817 -93.9100 80° East 182 209 11,000  Level Minneapolis Center
Sun 05:22:07 PM 42.5917 -93.8433 78° East 183 211 11,000  Level Minneapolis Center
Sun 05:23:09 PM 42.6003 -93.7761 80° East 183 211 11,000  Level Minneapolis Center
Sun 05:24:11 PM 42.6094 -93.6950 81° East 183 211 11,000  Level Minneapolis Center
Sun 05:25:13 PM 42.6164 -93.6256 82° East 184 212 11,000  Level Minneapolis Center
Sun 05:26:15 PM 42.6300 -93.5589 74° East 184 212 11,000  Level Minneapolis Center
Sun 05:27:17 PM 42.6397 -93.4917 79° East 184 212 11,000  Level Minneapolis Center
Sun 05:27:42 PM 42.6442 -93.4647 77° East 184 212 11,000  Level Minneapolis Center
Sun 05:28:44 PM 42.6533 -93.3983 79° East 182 209 11,000  Level Minneapolis Center
Sun 05:29:46 PM 42.6636 -93.3175 80° East 183 211 11,000  Level Minneapolis Center
Sun 05:30:48 PM 42.6728 -93.2503 79° East 183 211 11,000  Level Minneapolis Center
Sun 05:31:50 PM 42.6819 -93.1833 79° East 182 209 11,000 -48 Level Minneapolis Center
Sun 05:32:52 PM 42.6903 -93.1161 80° East 182 209 10,900 -48 Descending Minneapolis Center
Sun 05:33:54 PM 42.7011 -93.0486 78° East 184 212 10,900  Level Minneapolis Center
Sun 05:34:56 PM 42.7119 -92.9656 80° East 186 214 10,900  Level Minneapolis Center
Sun 05:35:58 PM 42.7208 -92.8981 80° East 184 212 10,900 48 Level Minneapolis Center
Sun 05:37:00 PM 42.7306 -92.8292 79° East 186 214 11,000 48 Climbing Minneapolis Center
Sun 05:38:02 PM 42.7375 -92.7608 82° East 184 212 11,000  Level Minneapolis Center
Sun 05:39:04 PM 42.7467 -92.6928 80° East 184 212 11,000  Level Minneapolis Center
Sun 05:40:06 PM 42.7589 -92.6106 79° East 185 213 11,000  Level Minneapolis Center
Sun 05:41:21 PM 42.7672 -92.5256 82° East 187 215 11,000 44 Level Chicago Center
Sun 05:42:23 PM 42.7758 -92.4567 80° East 188 216 11,100 48 Climbing Chicago Center
Sun 05:43:25 PM 42.7858 -92.3867 79° East 188 216 11,100 -48 Level Chicago Center
Sun 05:44:27 PM 42.7925 -92.3011 84° East 190 219 11,000  Descending Chicago Center
Sun 05:45:29 PM 42.8028 -92.2322 78° East 188 216 11,100  Climbing Chicago Center
Sun 05:46:31 PM 42.8128 -92.1633 79° East 188 216 11,000 -48 Descending Chicago Center
Sun 05:47:33 PM 42.8217 -92.0939 80° East 188 216 11,000  Level Chicago Center
Sun 05:48:35 PM 42.8311 -92.0244 79° East 187 215 11,000 48 Level Chicago Center
Sun 05:49:37 PM 42.8408 -91.9419 81° East 187 215 11,100 48 Climbing Chicago Center
Sun 05:50:39 PM 42.8503 -91.8722 80° East 187 215 11,100 -145 Level Chicago Center
Sun 05:51:41 PM 42.8589 -91.7997 81° East 190 219 10,800 -97 Descending Chicago Center
Sun 05:52:43 PM 42.8664 -91.7264 82° East 193 222 10,900 48 Climbing Chicago Center
Sun 05:53:46 PM 42.8758 -91.6550 80° East 192 221 10,900  Level Chicago Center
Sun 05:54:48 PM 42.8856 -91.5833 79° East 192 221 10,900  Level Chicago Center
Sun 05:55:50 PM 42.8922 -91.5111 83° East 192 221 10,900 48 Level Chicago Center
Sun 05:56:52 PM 42.9033 -91.4256 80° East 191 220 11,000 48 Climbing Chicago Center
Sun 05:57:54 PM 42.9125 -91.3586 79° East 185 213 11,000  Level Chicago Center
Sun 05:58:56 PM 42.9197 -91.2889 82° East 185 213 11,000  Level Chicago Center
Sun 06:00:01 PM 42.9275 -91.2203 81° East 185 213 11,000  Level Chicago Center
Sun 06:01:03 PM 42.9381 -91.1372 80° East 186 214 11,000  Level Chicago Center
Sun 06:02:05 PM 42.9469 -91.0683 80° East 186 214 11,000 -194 Level Chicago Center
Sun 06:03:07 PM 42.9533 -90.9986 83° East 186 214 10,600 -484 Descending Chicago Center
Sun 06:04:09 PM 42.9606 -90.9206 83° East 202 232 10,000 -581 Descending Chicago Center
Sun 06:05:11 PM 42.9669 -90.8428 84° East 207 238 9,400 -629 Descending Chicago Center
Sun 06:06:13 PM 42.9781 -90.7481 81° East 211 243 8,700 -629 Descending Chicago Center
Sun 06:07:15 PM 42.9889 -90.6714 79° East 209 241 8,100 -581 Descending Chicago Center
Sun 06:08:17 PM 42.9983 -90.5947 80° East 208 239 7,500 -432 Descending Chicago Center
Sun 06:09:20 PM 43.0078 -90.5208 80° East 202 232 7,200 -384 Descending Chicago Center
Sun 06:10:22 PM 43.0181 -90.4494 79° East 196 226 6,700 -677 Descending Chicago Center
Sun 06:11:24 PM 43.0278 -90.3586 82° East 201 231 5,800 -726 Descending Chicago Center
Sun 06:12:26 PM 43.0331 -90.2814 85° East 204 235 5,200 -435 Descending Chicago Center
Sun 06:13:28 PM 43.0417 -90.2092 81° East 198 228 4,900 -145 Descending Chicago Center
Sun 06:14:30 PM 43.0519 -90.1408 78° East 188 216 4,900 48 Level Chicago Center
Sun 06:15:32 PM 43.0592 -90.0736 82° East 182 209 5,000  Climbing Chicago Center
Sun 06:16:34 PM 43.0633 -89.9925 86° East 180 207 4,900 -97 Descending Chicago Center
Sun 06:17:36 PM 43.0686 -89.9247 84° East 180 207 4,800 -242 Descending Chicago Center
Sun 06:18:38 PM 43.0719 -89.8589 86° East 183 211 4,400 -435 Descending Chicago Center
Sun 06:19:40 PM 43.0800 -89.7797 82° East 178 205 3,900 -435 Descending Chicago Center
Sun 06:20:42 PM 43.0886 -89.7150 80° East 175 201 3,500 -192 Descending Chicago Center
Sun 06:21:45 PM 43.0922 -89.6589 85° East 171 197 3,500  Level Chicago Center

Login

Don't have an account? Register now (free) for customized features, flight alerts, and more!